sensor_id;sensor_type;location;lat;lon;timestamp;P1;durP1;ratioP1;P2;durP2;ratioP2
34902;SDS011;21114;44.840;0.214;2024-01-06T00:00:43;9.95;;;7.72;;
34902;SDS011;21114;44.840;0.214;2024-01-06T00:03:10;9.52;;;7.75;;
34902;SDS011;21114;44.840;0.214;2024-01-06T00:05:36;9.45;;;8.10;;
34902;SDS011;21114;44.840;0.214;2024-01-06T00:08:03;18.35;;;14.55;;
34902;SDS011;21114;44.840;0.214;2024-01-06T00:10:29;24.38;;;18.95;;
34902;SDS011;21114;44.840;0.214;2024-01-06T00:12:55;27.80;;;18.55;;
34902;SDS011;21114;44.840;0.214;2024-01-06T00:15:21;26.90;;;17.02;;
34902;SDS011;21114;44.840;0.214;2024-01-06T00:17:47;29.63;;;15.60;;
34902;SDS011;21114;44.840;0.214;2024-01-06T00:20:13;62.42;;;16.55;;
34902;SDS011;21114;44.840;0.214;2024-01-06T00:22:39;49.55;;;12.73;;
34902;SDS011;21114;44.840;0.214;2024-01-06T00:25:07;77.93;;;14.57;;
34902;SDS011;21114;44.840;0.214;2024-01-06T00:27:33;54.53;;;16.75;;
34902;SDS011;21114;44.840;0.214;2024-01-06T00:29:59;77.57;;;16.67;;
34902;SDS011;21114;44.840;0.214;2024-01-06T00:32:25;61.15;;;16.13;;
34902;SDS011;21114;44.840;0.214;2024-01-06T00:34:51;35.13;;;13.18;;
34902;SDS011;21114;44.840;0.214;2024-01-06T00:37:17;83.03;;;18.88;;
34902;SDS011;21114;44.840;0.214;2024-01-06T00:39:43;35.20;;;14.35;;
34902;SDS011;21114;44.840;0.214;2024-01-06T00:42:09;69.10;;;18.98;;
34902;SDS011;21114;44.840;0.214;2024-01-06T00:44:36;101.03;;;18.85;;
34902;SDS011;21114;44.840;0.214;2024-01-06T00:47:02;136.63;;;25.52;;
34902;SDS011;21114;44.840;0.214;2024-01-06T00:49:28;91.00;;;16.75;;
34902;SDS011;21114;44.840;0.214;2024-01-06T00:51:54;99.10;;;19.63;;
34902;SDS011;21114;44.840;0.214;2024-01-06T00:54:20;133.57;;;15.50;;
34902;SDS011;21114;44.840;0.214;2024-01-06T00:56:46;145.82;;;24.63;;
34902;SDS011;21114;44.840;0.214;2024-01-06T00:59:12;49.53;;;13.38;;
34902;SDS011;21114;44.840;0.214;2024-01-06T01:01:38;97.82;;;17.45;;
34902;SDS011;21114;44.840;0.214;2024-01-06T01:04:04;72.40;;;15.70;;
34902;SDS011;21114;44.840;0.214;2024-01-06T01:06:31;92.03;;;17.50;;
34902;SDS011;21114;44.840;0.214;2024-01-06T01:09:45;64.53;;;14.45;;
34902;SDS011;21114;44.840;0.214;2024-01-06T01:12:11;98.68;;;19.65;;
34902;SDS011;21114;44.840;0.214;2024-01-06T01:14:37;196.55;;;24.23;;
34902;SDS011;21114;44.840;0.214;2024-01-06T01:17:03;82.93;;;16.90;;
34902;SDS011;21114;44.840;0.214;2024-01-06T01:19:29;177.57;;;25.38;;
34902;SDS011;21114;44.840;0.214;2024-01-06T01:21:55;92.82;;;17.40;;
34902;SDS011;21114;44.840;0.214;2024-01-06T01:24:22;146.70;;;20.10;;
34902;SDS011;21114;44.840;0.214;2024-01-06T01:26:48;168.50;;;25.38;;
34902;SDS011;21114;44.840;0.214;2024-01-06T01:29:58;143.48;;;24.05;;
34902;SDS011;21114;44.840;0.214;2024-01-06T01:32:24;158.25;;;26.98;;
34902;SDS011;21114;44.840;0.214;2024-01-06T01:34:50;179.68;;;22.92;;
34902;SDS011;21114;44.840;0.214;2024-01-06T01:37:16;95.68;;;17.60;;
34902;SDS011;21114;44.840;0.214;2024-01-06T01:39:42;129.27;;;23.88;;
34902;SDS011;21114;44.840;0.214;2024-01-06T01:42:08;74.85;;;17.10;;
34902;SDS011;21114;44.840;0.214;2024-01-06T01:45:23;244.27;;;27.90;;
34902;SDS011;21114;44.840;0.214;2024-01-06T01:47:49;186.05;;;27.02;;
34902;SDS011;21114;44.840;0.214;2024-01-06T01:50:15;134.40;;;20.90;;
34902;SDS011;21114;44.840;0.214;2024-01-06T01:52:41;127.05;;;18.63;;
34902;SDS011;21114;44.840;0.214;2024-01-06T01:55:08;163.32;;;20.35;;
34902;SDS011;21114;44.840;0.214;2024-01-06T01:57:34;255.90;;;24.45;;
34902;SDS011;21114;44.840;0.214;2024-01-06T02:00:00;217.65;;;28.60;;
34902;SDS011;21114;44.840;0.214;2024-01-06T02:03:01;156.23;;;19.40;;
34902;SDS011;21114;44.840;0.214;2024-01-06T02:05:48;177.20;;;21.95;;
34902;SDS011;21114;44.840;0.214;2024-01-06T02:08:14;99.47;;;18.10;;
34902;SDS011;21114;44.840;0.214;2024-01-06T02:10:40;160.80;;;20.17;;
34902;SDS011;21114;44.840;0.214;2024-01-06T02:13:10;76.13;;;15.57;;
34902;SDS011;21114;44.840;0.214;2024-01-06T02:16:25;29.17;;;8.43;;
34902;SDS011;21114;44.840;0.214;2024-01-06T02:18:51;27.30;;;8.80;;
34902;SDS011;21114;44.840;0.214;2024-01-06T02:21:17;27.45;;;6.57;;
34902;SDS011;21114;44.840;0.214;2024-01-06T02:24:35;19.45;;;5.57;;
34902;SDS011;21114;44.840;0.214;2024-01-06T02:27:01;15.48;;;7.25;;
34902;SDS011;21114;44.840;0.214;2024-01-06T02:29:27;39.42;;;8.05;;
34902;SDS011;21114;44.840;0.214;2024-01-06T02:31:54;17.58;;;4.20;;
34902;SDS011;21114;44.840;0.214;2024-01-06T02:34:20;12.90;;;4.85;;
34902;SDS011;21114;44.840;0.214;2024-01-06T02:36:46;5.57;;;4.40;;
34902;SDS011;21114;44.840;0.214;2024-01-06T02:39:12;22.33;;;7.07;;
34902;SDS011;21114;44.840;0.214;2024-01-06T02:41:38;89.90;;;10.98;;
34902;SDS011;21114;44.840;0.214;2024-01-06T02:44:04;100.00;;;11.15;;
34902;SDS011;21114;44.840;0.214;2024-01-06T02:46:30;10.95;;;5.25;;
34902;SDS011;21114;44.840;0.214;2024-01-06T02:48:56;14.45;;;6.20;;
34902;SDS011;21114;44.840;0.214;2024-01-06T02:51:22;22.60;;;6.63;;
34902;SDS011;21114;44.840;0.214;2024-01-06T02:53:48;34.50;;;9.38;;
34902;SDS011;21114;44.840;0.214;2024-01-06T02:56:14;19.77;;;6.78;;
34902;SDS011;21114;44.840;0.214;2024-01-06T02:58:40;14.65;;;6.07;;
34902;SDS011;21114;44.840;0.214;2024-01-06T03:01:06;23.42;;;7.22;;
34902;SDS011;21114;44.840;0.214;2024-01-06T03:03:33;20.08;;;5.75;;
34902;SDS011;21114;44.840;0.214;2024-01-06T03:05:59;19.38;;;6.07;;
34902;SDS011;21114;44.840;0.214;2024-01-06T03:08:25;8.77;;;6.20;;
34902;SDS011;21114;44.840;0.214;2024-01-06T03:10:51;13.80;;;5.72;;
34902;SDS011;21114;44.840;0.214;2024-01-06T03:13:17;14.93;;;6.38;;
34902;SDS011;21114;44.840;0.214;2024-01-06T03:15:43;9.85;;;5.13;;
34902;SDS011;21114;44.840;0.214;2024-01-06T03:18:10;8.88;;;6.20;;
34902;SDS011;21114;44.840;0.214;2024-01-06T03:20:36;12.27;;;6.25;;
34902;SDS011;21114;44.840;0.214;2024-01-06T03:23:02;9.25;;;6.22;;
34902;SDS011;21114;44.840;0.214;2024-01-06T03:25:28;9.63;;;4.75;;
34902;SDS011;21114;44.840;0.214;2024-01-06T03:27:55;9.32;;;6.03;;
34902;SDS011;21114;44.840;0.214;2024-01-06T03:30:21;8.57;;;5.47;;
34902;SDS011;21114;44.840;0.214;2024-01-06T03:32:47;8.25;;;5.82;;
34902;SDS011;21114;44.840;0.214;2024-01-06T03:35:13;11.25;;;7.35;;
34902;SDS011;21114;44.840;0.214;2024-01-06T03:37:40;9.15;;;5.65;;
34902;SDS011;21114;44.840;0.214;2024-01-06T03:40:06;8.20;;;5.45;;
34902;SDS011;21114;44.840;0.214;2024-01-06T03:42:32;7.43;;;5.32;;
34902;SDS011;21114;44.840;0.214;2024-01-06T03:44:58;8.38;;;6.35;;
34902;SDS011;21114;44.840;0.214;2024-01-06T03:47:24;6.97;;;5.07;;
34902;SDS011;21114;44.840;0.214;2024-01-06T03:49:50;9.55;;;5.35;;
34902;SDS011;21114;44.840;0.214;2024-01-06T03:52:16;7.13;;;4.57;;
34902;SDS011;21114;44.840;0.214;2024-01-06T03:54:43;5.95;;;4.45;;
34902;SDS011;21114;44.840;0.214;2024-01-06T03:57:09;6.70;;;4.45;;
34902;SDS011;21114;44.840;0.214;2024-01-06T03:59:35;7.18;;;5.40;;
34902;SDS011;21114;44.840;0.214;2024-01-06T04:02:01;7.55;;;4.68;;
34902;SDS011;21114;44.840;0.214;2024-01-06T04:04:27;6.72;;;4.22;;
34902;SDS011;21114;44.840;0.214;2024-01-06T04:06:53;6.95;;;4.10;;
34902;SDS011;21114;44.840;0.214;2024-01-06T04:09:19;7.07;;;4.75;;
34902;SDS011;21114;44.840;0.214;2024-01-06T04:11:45;6.60;;;4.63;;
34902;SDS011;21114;44.840;0.214;2024-01-06T04:14:12;4.75;;;4.22;;
34902;SDS011;21114;44.840;0.214;2024-01-06T04:16:38;4.75;;;4.22;;
34902;SDS011;21114;44.840;0.214;2024-01-06T04:19:04;6.57;;;4.32;;
34902;SDS011;21114;44.840;0.214;2024-01-06T04:21:32;6.25;;;4.40;;
34902;SDS011;21114;44.840;0.214;2024-01-06T04:23:58;7.55;;;5.32;;
34902;SDS011;21114;44.840;0.214;2024-01-06T04:26:24;5.97;;;4.50;;
34902;SDS011;21114;44.840;0.214;2024-01-06T04:28:50;10.30;;;5.10;;
34902;SDS011;21114;44.840;0.214;2024-01-06T04:31:17;7.68;;;6.05;;
34902;SDS011;21114;44.840;0.214;2024-01-06T04:33:43;6.55;;;5.05;;
34902;SDS011;21114;44.840;0.214;2024-01-06T04:36:09;5.05;;;3.95;;
34902;SDS011;21114;44.840;0.214;2024-01-06T04:38:35;6.35;;;4.60;;
34902;SDS011;21114;44.840;0.214;2024-01-06T04:41:01;7.93;;;5.15;;
34902;SDS011;21114;44.840;0.214;2024-01-06T04:43:27;5.15;;;4.45;;
34902;SDS011;21114;44.840;0.214;2024-01-06T04:45:53;6.80;;;4.57;;
34902;SDS011;21114;44.840;0.214;2024-01-06T04:48:19;7.45;;;5.60;;
34902;SDS011;21114;44.840;0.214;2024-01-06T04:50:45;6.47;;;4.35;;
34902;SDS011;21114;44.840;0.214;2024-01-06T04:53:11;7.00;;;4.60;;
34902;SDS011;21114;44.840;0.214;2024-01-06T04:55:37;6.65;;;4.97;;
34902;SDS011;21114;44.840;0.214;2024-01-06T04:58:03;8.88;;;6.65;;
34902;SDS011;21114;44.840;0.214;2024-01-06T05:00:29;8.50;;;5.82;;
34902;SDS011;21114;44.840;0.214;2024-01-06T05:02:56;8.35;;;5.47;;
34902;SDS011;21114;44.840;0.214;2024-01-06T05:05:22;8.70;;;4.68;;
34902;SDS011;21114;44.840;0.214;2024-01-06T05:07:48;8.02;;;6.95;;
34902;SDS011;21114;44.840;0.214;2024-01-06T05:10:14;7.57;;;5.80;;
34902;SDS011;21114;44.840;0.214;2024-01-06T05:12:40;7.65;;;6.15;;
34902;SDS011;21114;44.840;0.214;2024-01-06T05:15:07;7.25;;;5.88;;
34902;SDS011;21114;44.840;0.214;2024-01-06T05:18:21;9.57;;;5.72;;
34902;SDS011;21114;44.840;0.214;2024-01-06T05:20:47;8.25;;;6.95;;
34902;SDS011;21114;44.840;0.214;2024-01-06T05:23:13;10.70;;;6.90;;
34902;SDS011;21114;44.840;0.214;2024-01-06T05:25:39;18.63;;;10.95;;
34902;SDS011;21114;44.840;0.214;2024-01-06T05:28:06;14.50;;;10.43;;
34902;SDS011;21114;44.840;0.214;2024-01-06T05:30:32;16.83;;;8.90;;
34902;SDS011;21114;44.840;0.214;2024-01-06T05:32:58;11.38;;;7.38;;
34902;SDS011;21114;44.840;0.214;2024-01-06T05:35:24;8.85;;;5.97;;
34902;SDS011;21114;44.840;0.214;2024-01-06T05:37:50;9.82;;;5.53;;
34902;SDS011;21114;44.840;0.214;2024-01-06T05:40:16;16.40;;;8.68;;
34902;SDS011;21114;44.840;0.214;2024-01-06T05:42:42;10.15;;;6.50;;
34902;SDS011;21114;44.840;0.214;2024-01-06T05:45:10;8.70;;;6.50;;
34902;SDS011;21114;44.840;0.214;2024-01-06T05:48:24;8.63;;;6.35;;
34902;SDS011;21114;44.840;0.214;2024-01-06T05:50:51;13.70;;;6.63;;
34902;SDS011;21114;44.840;0.214;2024-01-06T05:53:17;9.85;;;6.78;;
34902;SDS011;21114;44.840;0.214;2024-01-06T05:55:43;13.50;;;6.78;;
34902;SDS011;21114;44.840;0.214;2024-01-06T05:58:09;10.23;;;6.60;;
34902;SDS011;21114;44.840;0.214;2024-01-06T06:00:35;13.68;;;8.40;;
34902;SDS011;21114;44.840;0.214;2024-01-06T06:03:01;11.35;;;8.45;;
34902;SDS011;21114;44.840;0.214;2024-01-06T06:05:27;9.95;;;7.05;;
34902;SDS011;21114;44.840;0.214;2024-01-06T06:07:54;10.00;;;6.03;;
34902;SDS011;21114;44.840;0.214;2024-01-06T06:10:20;10.18;;;7.72;;
34902;SDS011;21114;44.840;0.214;2024-01-06T06:12:46;9.45;;;6.53;;
34902;SDS011;21114;44.840;0.214;2024-01-06T06:15:12;14.88;;;7.10;;
34902;SDS011;21114;44.840;0.214;2024-01-06T06:17:38;9.20;;;7.22;;
34902;SDS011;21114;44.840;0.214;2024-01-06T06:20:53;10.07;;;6.85;;
34902;SDS011;21114;44.840;0.214;2024-01-06T06:23:19;8.23;;;6.18;;
34902;SDS011;21114;44.840;0.214;2024-01-06T06:25:45;12.27;;;6.47;;
34902;SDS011;21114;44.840;0.214;2024-01-06T06:28:11;9.80;;;6.43;;
34902;SDS011;21114;44.840;0.214;2024-01-06T06:30:37;9.45;;;6.70;;
34902;SDS011;21114;44.840;0.214;2024-01-06T06:33:04;12.00;;;7.00;;
34902;SDS011;21114;44.840;0.214;2024-01-06T06:35:30;9.10;;;6.78;;
34902;SDS011;21114;44.840;0.214;2024-01-06T06:37:56;11.73;;;7.32;;
34902;SDS011;21114;44.840;0.214;2024-01-06T06:40:23;15.43;;;8.18;;
34902;SDS011;21114;44.840;0.214;2024-01-06T06:42:49;12.50;;;7.03;;
34902;SDS011;21114;44.840;0.214;2024-01-06T06:45:15;7.10;;;5.93;;
34902;SDS011;21114;44.840;0.214;2024-01-06T06:47:41;10.00;;;6.25;;
34902;SDS011;21114;44.840;0.214;2024-01-06T06:50:07;11.57;;;8.40;;
34902;SDS011;21114;44.840;0.214;2024-01-06T06:52:34;12.73;;;7.15;;
34902;SDS011;21114;44.840;0.214;2024-01-06T06:55:00;10.60;;;7.10;;
34902;SDS011;21114;44.840;0.214;2024-01-06T06:57:26;10.13;;;7.82;;
34902;SDS011;21114;44.840;0.214;2024-01-06T06:59:52;11.15;;;8.00;;
34902;SDS011;21114;44.840;0.214;2024-01-06T07:02:18;12.38;;;9.07;;
34902;SDS011;21114;44.840;0.214;2024-01-06T07:04:44;13.80;;;9.98;;
34902;SDS011;21114;44.840;0.214;2024-01-06T07:07:10;14.75;;;9.90;;
34902;SDS011;21114;44.840;0.214;2024-01-06T07:09:36;14.82;;;9.55;;
34902;SDS011;21114;44.840;0.214;2024-01-06T07:12:02;10.90;;;8.35;;
34902;SDS011;21114;44.840;0.214;2024-01-06T07:14:28;17.65;;;11.98;;
34902;SDS011;21114;44.840;0.214;2024-01-06T07:16:54;17.38;;;10.73;;
34902;SDS011;21114;44.840;0.214;2024-01-06T07:19:20;17.15;;;9.73;;
34902;SDS011;21114;44.840;0.214;2024-01-06T07:21:46;14.77;;;9.93;;
34902;SDS011;21114;44.840;0.214;2024-01-06T07:24:12;13.55;;;10.05;;
34902;SDS011;21114;44.840;0.214;2024-01-06T07:26:39;31.98;;;14.10;;
34902;SDS011;21114;44.840;0.214;2024-01-06T07:29:05;13.00;;;7.47;;
34902;SDS011;21114;44.840;0.214;2024-01-06T07:31:33;9.90;;;7.57;;
34902;SDS011;21114;44.840;0.214;2024-01-06T07:33:59;13.45;;;7.18;;
34902;SDS011;21114;44.840;0.214;2024-01-06T07:36:25;9.25;;;6.90;;
34902;SDS011;21114;44.840;0.214;2024-01-06T07:38:51;10.60;;;7.03;;
34902;SDS011;21114;44.840;0.214;2024-01-06T07:41:17;14.05;;;7.90;;
34902;SDS011;21114;44.840;0.214;2024-01-06T07:43:43;11.52;;;8.15;;
34902;SDS011;21114;44.840;0.214;2024-01-06T07:46:10;7.43;;;5.38;;
34902;SDS011;21114;44.840;0.214;2024-01-06T07:48:36;6.53;;;5.75;;
34902;SDS011;21114;44.840;0.214;2024-01-06T07:51:02;14.40;;;6.45;;
34902;SDS011;21114;44.840;0.214;2024-01-06T07:53:28;12.82;;;5.80;;
34902;SDS011;21114;44.840;0.214;2024-01-06T07:55:55;10.30;;;6.70;;
34902;SDS011;21114;44.840;0.214;2024-01-06T07:58:21;11.48;;;6.20;;
34902;SDS011;21114;44.840;0.214;2024-01-06T08:00:47;8.57;;;5.90;;
34902;SDS011;21114;44.840;0.214;2024-01-06T08:03:13;6.50;;;5.63;;
34902;SDS011;21114;44.840;0.214;2024-01-06T08:05:41;10.00;;;6.25;;
34902;SDS011;21114;44.840;0.214;2024-01-06T08:08:07;8.90;;;6.07;;
34902;SDS011;21114;44.840;0.214;2024-01-06T08:10:33;7.05;;;5.35;;
34902;SDS011;21114;44.840;0.214;2024-01-06T08:12:59;10.88;;;6.47;;
34902;SDS011;21114;44.840;0.214;2024-01-06T08:15:25;8.13;;;5.55;;
34902;SDS011;21114;44.840;0.214;2024-01-06T08:17:51;9.25;;;5.40;;
34902;SDS011;21114;44.840;0.214;2024-01-06T08:20:17;8.00;;;6.55;;
34902;SDS011;21114;44.840;0.214;2024-01-06T08:22:43;9.25;;;5.38;;
34902;SDS011;21114;44.840;0.214;2024-01-06T08:25:10;8.20;;;6.40;;
34902;SDS011;21114;44.840;0.214;2024-01-06T08:28:17;7.55;;;5.05;;
34902;SDS011;21114;44.840;0.214;2024-01-06T08:30:44;7.97;;;6.28;;
34902;SDS011;21114;44.840;0.214;2024-01-06T08:33:10;8.27;;;5.90;;
34902;SDS011;21114;44.840;0.214;2024-01-06T08:35:36;7.82;;;6.38;;
34902;SDS011;21114;44.840;0.214;2024-01-06T08:38:05;7.22;;;5.68;;
34902;SDS011;21114;44.840;0.214;2024-01-06T08:41:20;9.55;;;5.95;;
34902;SDS011;21114;44.840;0.214;2024-01-06T08:43:46;8.88;;;6.65;;
34902;SDS011;21114;44.840;0.214;2024-01-06T08:46:12;7.55;;;6.22;;
34902;SDS011;21114;44.840;0.214;2024-01-06T08:48:38;8.20;;;6.72;;
34902;SDS011;21114;44.840;0.214;2024-01-06T08:51:04;12.23;;;7.95;;
34902;SDS011;21114;44.840;0.214;2024-01-06T08:53:31;8.85;;;6.35;;
34902;SDS011;21114;44.840;0.214;2024-01-06T08:55:57;8.07;;;7.28;;
34902;SDS011;21114;44.840;0.214;2024-01-06T08:58:23;11.15;;;9.05;;
34902;SDS011;21114;44.840;0.214;2024-01-06T09:00:49;8.88;;;7.22;;
34902;SDS011;21114;44.840;0.214;2024-01-06T09:03:15;12.30;;;8.15;;
34902;SDS011;21114;44.840;0.214;2024-01-06T09:05:42;9.45;;;7.15;;
34902;SDS011;21114;44.840;0.214;2024-01-06T09:08:08;9.68;;;8.30;;
34902;SDS011;21114;44.840;0.214;2024-01-06T09:10:34;10.07;;;7.70;;
34902;SDS011;21114;44.840;0.214;2024-01-06T09:13:01;11.00;;;8.00;;
34902;SDS011;21114;44.840;0.214;2024-01-06T09:15:27;12.05;;;7.57;;
34902;SDS011;21114;44.840;0.214;2024-01-06T09:17:53;9.43;;;7.90;;
34902;SDS011;21114;44.840;0.214;2024-01-06T09:20:19;9.40;;;7.68;;
34902;SDS011;21114;44.840;0.214;2024-01-06T09:22:48;9.70;;;7.10;;
34902;SDS011;21114;44.840;0.214;2024-01-06T09:25:14;7.70;;;6.68;;
34902;SDS011;21114;44.840;0.214;2024-01-06T09:27:40;9.77;;;6.68;;
34902;SDS011;21114;44.840;0.214;2024-01-06T09:30:06;8.40;;;7.35;;
34902;SDS011;21114;44.840;0.214;2024-01-06T09:33:21;8.25;;;6.22;;
34902;SDS011;21114;44.840;0.214;2024-01-06T09:36:37;9.30;;;7.88;;
34902;SDS011;21114;44.840;0.214;2024-01-06T09:39:03;13.20;;;9.50;;
34902;SDS011;21114;44.840;0.214;2024-01-06T09:41:29;11.10;;;7.10;;
34902;SDS011;21114;44.840;0.214;2024-01-06T09:43:55;7.88;;;6.32;;
34902;SDS011;21114;44.840;0.214;2024-01-06T09:46:25;7.55;;;6.43;;
34902;SDS011;21114;44.840;0.214;2024-01-06T09:49:39;7.05;;;5.75;;
34902;SDS011;21114;44.840;0.214;2024-01-06T09:52:55;7.63;;;5.38;;
34902;SDS011;21114;44.840;0.214;2024-01-06T09:56:10;8.77;;;6.00;;
34902;SDS011;21114;44.840;0.214;2024-01-06T09:58:37;8.60;;;5.78;;
34902;SDS011;21114;44.840;0.214;2024-01-06T10:01:54;7.68;;;5.43;;
34902;SDS011;21114;44.840;0.214;2024-01-06T10:05:11;9.73;;;6.25;;
34902;SDS011;21114;44.840;0.214;2024-01-06T10:07:37;9.70;;;6.88;;
34902;SDS011;21114;44.840;0.214;2024-01-06T10:10:04;6.47;;;5.60;;
34902;SDS011;21114;44.840;0.214;2024-01-06T10:13:21;6.38;;;5.00;;
34902;SDS011;21114;44.840;0.214;2024-01-06T10:15:49;8.13;;;5.50;;
34902;SDS011;21114;44.840;0.214;2024-01-06T10:18:15;6.88;;;5.50;;
34902;SDS011;21114;44.840;0.214;2024-01-06T10:20:41;6.50;;;5.53;;
34902;SDS011;21114;44.840;0.214;2024-01-06T10:23:07;6.95;;;5.28;;
34902;SDS011;21114;44.840;0.214;2024-01-06T10:25:34;7.80;;;5.28;;
34902;SDS011;21114;44.840;0.214;2024-01-06T10:28:48;5.65;;;4.35;;
34902;SDS011;21114;44.840;0.214;2024-01-06T10:31:15;5.78;;;4.00;;
34902;SDS011;21114;44.840;0.214;2024-01-06T10:33:41;6.68;;;5.07;;
34902;SDS011;21114;44.840;0.214;2024-01-06T10:36:08;9.30;;;6.25;;
34902;SDS011;21114;44.840;0.214;2024-01-06T10:38:34;8.50;;;5.88;;
34902;SDS011;21114;44.840;0.214;2024-01-06T10:41:01;7.80;;;5.20;;
34902;SDS011;21114;44.840;0.214;2024-01-06T10:44:16;5.13;;;4.57;;
34902;SDS011;21114;44.840;0.214;2024-01-06T10:46:43;8.68;;;5.53;;
34902;SDS011;21114;44.840;0.214;2024-01-06T10:49:58;7.20;;;5.93;;
34902;SDS011;21114;44.840;0.214;2024-01-06T10:53:13;9.25;;;6.28;;
34902;SDS011;21114;44.840;0.214;2024-01-06T10:56:08;6.63;;;4.90;;
34902;SDS011;21114;44.840;0.214;2024-01-06T10:59:22;8.23;;;4.78;;
34902;SDS011;21114;44.840;0.214;2024-01-06T11:02:38;9.52;;;5.35;;
34902;SDS011;21114;44.840;0.214;2024-01-06T11:05:53;6.57;;;5.20;;
34902;SDS011;21114;44.840;0.214;2024-01-06T11:08:19;11.35;;;5.65;;
34902;SDS011;21114;44.840;0.214;2024-01-06T11:11:04;5.38;;;4.32;;
34902;SDS011;21114;44.840;0.214;2024-01-06T11:13:30;5.20;;;4.28;;
34902;SDS011;21114;44.840;0.214;2024-01-06T11:15:56;8.10;;;5.00;;
34902;SDS011;21114;44.840;0.214;2024-01-06T11:18:32;7.75;;;5.38;;
34902;SDS011;21114;44.840;0.214;2024-01-06T11:21:46;5.38;;;4.03;;
34902;SDS011;21114;44.840;0.214;2024-01-06T11:24:18;3.97;;;3.45;;
34902;SDS011;21114;44.840;0.214;2024-01-06T11:27:33;6.75;;;4.20;;
34902;SDS011;21114;44.840;0.214;2024-01-06T11:30:01;8.23;;;4.63;;
34902;SDS011;21114;44.840;0.214;2024-01-06T11:32:42;6.35;;;3.55;;
34902;SDS011;21114;44.840;0.214;2024-01-06T11:35:12;5.05;;;3.75;;
34902;SDS011;21114;44.840;0.214;2024-01-06T11:40:55;8.68;;;4.78;;
34902;SDS011;21114;44.840;0.214;2024-01-06T11:43:21;5.45;;;4.45;;
34902;SDS011;21114;44.840;0.214;2024-01-06T11:46:41;4.95;;;3.50;;
34902;SDS011;21114;44.840;0.214;2024-01-06T11:49:56;6.18;;;4.75;;
34902;SDS011;21114;44.840;0.214;2024-01-06T11:52:58;11.80;;;4.70;;
34902;SDS011;21114;44.840;0.214;2024-01-06T11:55:25;7.85;;;6.03;;
34902;SDS011;21114;44.840;0.214;2024-01-06T11:57:53;7.45;;;4.60;;
34902;SDS011;21114;44.840;0.214;2024-01-06T12:00:19;6.72;;;4.93;;
34902;SDS011;21114;44.840;0.214;2024-01-06T12:02:45;7.28;;;6.07;;
34902;SDS011;21114;44.840;0.214;2024-01-06T12:05:18;7.50;;;4.13;;
34902;SDS011;21114;44.840;0.214;2024-01-06T12:08:32;4.75;;;4.07;;
34902;SDS011;21114;44.840;0.214;2024-01-06T12:11:04;7.10;;;4.78;;
34902;SDS011;21114;44.840;0.214;2024-01-06T12:13:59;7.30;;;5.15;;
34902;SDS011;21114;44.840;0.214;2024-01-06T12:16:25;7.68;;;4.47;;
34902;SDS011;21114;44.840;0.214;2024-01-06T12:18:55;8.20;;;6.03;;
34902;SDS011;21114;44.840;0.214;2024-01-06T12:22:11;7.40;;;3.67;;
34902;SDS011;21114;44.840;0.214;2024-01-06T12:25:27;5.22;;;3.45;;
34902;SDS011;21114;44.840;0.214;2024-01-06T12:27:54;5.05;;;3.90;;
34902;SDS011;21114;44.840;0.214;2024-01-06T12:30:21;8.93;;;4.18;;
34902;SDS011;21114;44.840;0.214;2024-01-06T12:33:37;7.57;;;5.28;;
34902;SDS011;21114;44.840;0.214;2024-01-06T12:36:03;6.60;;;4.32;;
34902;SDS011;21114;44.840;0.214;2024-01-06T12:39:20;6.97;;;4.28;;
34902;SDS011;21114;44.840;0.214;2024-01-06T12:41:46;6.05;;;4.82;;
34902;SDS011;21114;44.840;0.214;2024-01-06T12:44:12;9.75;;;4.72;;
34902;SDS011;21114;44.840;0.214;2024-01-06T12:46:38;8.57;;;4.80;;
34902;SDS011;21114;44.840;0.214;2024-01-06T12:49:04;7.30;;;4.22;;
34902;SDS011;21114;44.840;0.214;2024-01-06T12:51:30;4.68;;;4.05;;
34902;SDS011;21114;44.840;0.214;2024-01-06T12:53:56;6.35;;;4.80;;
34902;SDS011;21114;44.840;0.214;2024-01-06T12:56:22;6.65;;;4.50;;
34902;SDS011;21114;44.840;0.214;2024-01-06T12:58:48;6.47;;;4.20;;
34902;SDS011;21114;44.840;0.214;2024-01-06T13:01:15;5.45;;;4.00;;
34902;SDS011;21114;44.840;0.214;2024-01-06T13:03:42;5.88;;;3.90;;
34902;SDS011;21114;44.840;0.214;2024-01-06T13:06:08;4.85;;;4.00;;
34902;SDS011;21114;44.840;0.214;2024-01-06T13:09:23;6.03;;;4.10;;
34902;SDS011;21114;44.840;0.214;2024-01-06T13:12:38;5.95;;;4.53;;
34902;SDS011;21114;44.840;0.214;2024-01-06T13:15:04;7.05;;;4.20;;
34902;SDS011;21114;44.840;0.214;2024-01-06T13:18:19;5.22;;;4.38;;
34902;SDS011;21114;44.840;0.214;2024-01-06T13:20:45;6.70;;;4.22;;
34902;SDS011;21114;44.840;0.214;2024-01-06T13:23:11;5.80;;;3.45;;
34902;SDS011;21114;44.840;0.214;2024-01-06T13:25:37;4.75;;;4.03;;
34902;SDS011;21114;44.840;0.214;2024-01-06T13:28:07;7.78;;;4.00;;
34902;SDS011;21114;44.840;0.214;2024-01-06T13:31:21;7.85;;;4.30;;
34902;SDS011;21114;44.840;0.214;2024-01-06T13:33:48;6.22;;;4.68;;
34902;SDS011;21114;44.840;0.214;2024-01-06T13:36:17;6.75;;;4.07;;
34902;SDS011;21114;44.840;0.214;2024-01-06T13:38:43;4.40;;;3.47;;
34902;SDS011;21114;44.840;0.214;2024-01-06T13:41:09;6.13;;;4.15;;
34902;SDS011;21114;44.840;0.214;2024-01-06T13:43:35;4.82;;;3.80;;
34902;SDS011;21114;44.840;0.214;2024-01-06T13:46:01;4.35;;;3.72;;
34902;SDS011;21114;44.840;0.214;2024-01-06T13:48:27;6.28;;;3.10;;
34902;SDS011;21114;44.840;0.214;2024-01-06T13:50:53;8.70;;;3.03;;
34902;SDS011;21114;44.840;0.214;2024-01-06T13:53:20;5.78;;;3.33;;
34902;SDS011;21114;44.840;0.214;2024-01-06T13:55:46;8.93;;;4.95;;
34902;SDS011;21114;44.840;0.214;2024-01-06T13:58:12;4.88;;;2.95;;
34902;SDS011;21114;44.840;0.214;2024-01-06T14:00:38;5.60;;;2.60;;
34902;SDS011;21114;44.840;0.214;2024-01-06T14:03:05;4.60;;;2.45;;
34902;SDS011;21114;44.840;0.214;2024-01-06T14:06:25;6.25;;;2.95;;
34902;SDS011;21114;44.840;0.214;2024-01-06T14:09:43;5.22;;;3.35;;
34902;SDS011;21114;44.840;0.214;2024-01-06T14:12:09;4.35;;;2.78;;
34902;SDS011;21114;44.840;0.214;2024-01-06T14:14:35;5.13;;;2.92;;
34902;SDS011;21114;44.840;0.214;2024-01-06T14:17:02;6.90;;;3.03;;
34902;SDS011;21114;44.840;0.214;2024-01-06T14:19:28;3.97;;;2.45;;
34902;SDS011;21114;44.840;0.214;2024-01-06T14:21:54;3.78;;;2.40;;
34902;SDS011;21114;44.840;0.214;2024-01-06T14:24:20;4.53;;;2.45;;
34902;SDS011;21114;44.840;0.214;2024-01-06T14:26:52;4.35;;;2.08;;
34902;SDS011;21114;44.840;0.214;2024-01-06T14:30:07;9.40;;;3.00;;
34902;SDS011;21114;44.840;0.214;2024-01-06T14:32:34;3.10;;;2.05;;
34902;SDS011;21114;44.840;0.214;2024-01-06T14:35:01;5.00;;;2.67;;
34902;SDS011;21114;44.840;0.214;2024-01-06T14:37:27;3.95;;;2.90;;
34902;SDS011;21114;44.840;0.214;2024-01-06T14:39:53;3.75;;;2.00;;
34902;SDS011;21114;44.840;0.214;2024-01-06T14:42:19;3.83;;;1.88;;
34902;SDS011;21114;44.840;0.214;2024-01-06T14:44:45;3.58;;;1.60;;
34902;SDS011;21114;44.840;0.214;2024-01-06T14:47:11;3.90;;;1.80;;
34902;SDS011;21114;44.840;0.214;2024-01-06T14:49:37;4.38;;;1.38;;
34902;SDS011;21114;44.840;0.214;2024-01-06T14:52:04;2.47;;;1.35;;
34902;SDS011;21114;44.840;0.214;2024-01-06T14:55:18;3.33;;;1.83;;
34902;SDS011;21114;44.840;0.214;2024-01-06T14:57:45;3.28;;;1.63;;
34902;SDS011;21114;44.840;0.214;2024-01-06T15:00:11;3.88;;;2.90;;
34902;SDS011;21114;44.840;0.214;2024-01-06T15:03:25;5.07;;;1.83;;
34902;SDS011;21114;44.840;0.214;2024-01-06T15:05:51;5.47;;;1.45;;
34902;SDS011;21114;44.840;0.214;2024-01-06T15:08:18;2.67;;;1.67;;
34902;SDS011;21114;44.840;0.214;2024-01-06T15:10:44;2.38;;;1.38;;
34902;SDS011;21114;44.840;0.214;2024-01-06T15:13:10;3.97;;;1.50;;
34902;SDS011;21114;44.840;0.214;2024-01-06T15:15:36;1.33;;;0.80;;